Terminal Aerodrome Forecast
Issued by NWS Grand Rapids, MI

Current Version | Previous Version | Text Only | Print | Product List | Glossary On
Versions: 1 2 3 4 5 6 7 8 9 10 11 12 13 14
000
FTUS43 KGRR 240530
TAFGRR
TAF
KGRR 240530Z 2406/2506 01003KT P6SM SCT250
     FM241600 10011KT P6SM SCT250=

USA.gov is the U.S. government's official web portal to all federal, state and local government web resources and services.